sensor_id;sensor_type;location;lat;lon;timestamp;temperature;humidity
27164;DHT22;14685;50.618;7.024;2022-12-10T00:01:31;5.80;99.90
27164;DHT22;14685;50.618;7.024;2022-12-10T00:03:59;5.80;99.90
27164;DHT22;14685;50.618;7.024;2022-12-10T00:06:29;5.70;99.90
27164;DHT22;14685;50.618;7.024;2022-12-10T00:08:56;5.80;99.90
27164;DHT22;14685;50.618;7.024;2022-12-10T00:11:23;5.70;99.90
27164;DHT22;14685;50.618;7.024;2022-12-10T00:13:51;5.70;99.90
27164;DHT22;14685;50.618;7.024;2022-12-10T00:16:20;5.60;99.90
27164;DHT22;14685;50.618;7.024;2022-12-10T00:18:48;5.60;99.90
27164;DHT22;14685;50.618;7.024;2022-12-10T00:21:18;5.60;99.90
27164;DHT22;14685;50.618;7.024;2022-12-10T00:23:45;5.60;99.90
27164;DHT22;14685;50.618;7.024;2022-12-10T00:26:16;5.60;99.90
27164;DHT22;14685;50.618;7.024;2022-12-10T00:28:45;5.60;99.90
27164;DHT22;14685;50.618;7.024;2022-12-10T00:31:15;5.60;99.90
27164;DHT22;14685;50.618;7.024;2022-12-10T00:33:43;5.50;99.90
27164;DHT22;14685;50.618;7.024;2022-12-10T00:36:17;5.50;99.90
27164;DHT22;14685;50.618;7.024;2022-12-10T00:38:45;5.50;99.90
27164;DHT22;14685;50.618;7.024;2022-12-10T00:41:12;5.50;99.90
27164;DHT22;14685;50.618;7.024;2022-12-10T00:43:40;5.40;99.90
27164;DHT22;14685;50.618;7.024;2022-12-10T00:46:08;5.50;99.90
27164;DHT22;14685;50.618;7.024;2022-12-10T00:48:35;5.40;99.90
27164;DHT22;14685;50.618;7.024;2022-12-10T00:51:03;5.50;99.90
27164;DHT22;14685;50.618;7.024;2022-12-10T00:53:32;5.50;99.90
27164;DHT22;14685;50.618;7.024;2022-12-10T00:56:01;5.40;99.90
27164;DHT22;14685;50.618;7.024;2022-12-10T00:58:31;5.50;99.90
27164;DHT22;14685;50.618;7.024;2022-12-10T01:03:39;5.50;99.90
27164;DHT22;14685;50.618;7.024;2022-12-10T01:06:22;5.50;99.90
27164;DHT22;14685;50.618;7.024;2022-12-10T01:08:52;5.50;99.90
27164;DHT22;14685;50.618;7.024;2022-12-10T01:11:21;5.50;99.90
27164;DHT22;14685;50.618;7.024;2022-12-10T01:13:48;5.50;99.90
27164;DHT22;14685;50.618;7.024;2022-12-10T01:16:18;5.50;99.90
27164;DHT22;14685;50.618;7.024;2022-12-10T01:18:46;5.50;99.90
27164;DHT22;14685;50.618;7.024;2022-12-10T01:21:19;5.50;99.90
27164;DHT22;14685;50.618;7.024;2022-12-10T01:23:48;5.50;99.90
27164;DHT22;14685;50.618;7.024;2022-12-10T01:26:28;5.50;99.90
27164;DHT22;14685;50.618;7.024;2022-12-10T01:28:56;5.50;99.90
27164;DHT22;14685;50.618;7.024;2022-12-10T01:31:27;5.50;99.90
27164;DHT22;14685;50.618;7.024;2022-12-10T01:33:55;5.50;99.90
27164;DHT22;14685;50.618;7.024;2022-12-10T01:36:31;5.50;99.90
27164;DHT22;14685;50.618;7.024;2022-12-10T01:39:02;5.50;99.90
27164;DHT22;14685;50.618;7.024;2022-12-10T01:41:34;5.60;99.90
27164;DHT22;14685;50.618;7.024;2022-12-10T01:46:53;5.50;99.90
27164;DHT22;14685;50.618;7.024;2022-12-10T01:49:25;5.60;99.90
27164;DHT22;14685;50.618;7.024;2022-12-10T01:51:55;5.60;99.90
27164;DHT22;14685;50.618;7.024;2022-12-10T01:54:35;5.60;99.90
27164;DHT22;14685;50.618;7.024;2022-12-10T01:57:15;5.60;99.90
27164;DHT22;14685;50.618;7.024;2022-12-10T01:59:46;5.60;99.90
27164;DHT22;14685;50.618;7.024;2022-12-10T02:04:56;5.60;99.90
27164;DHT22;14685;50.618;7.024;2022-12-10T02:07:53;5.50;99.90
27164;DHT22;14685;50.618;7.024;2022-12-10T02:10:41;5.60;99.90
27164;DHT22;14685;50.618;7.024;2022-12-10T02:13:31;5.50;99.90
27164;DHT22;14685;50.618;7.024;2022-12-10T02:16:06;5.60;99.90
27164;DHT22;14685;50.618;7.024;2022-12-10T02:18:39;5.60;99.90
27164;DHT22;14685;50.618;7.024;2022-12-10T02:21:14;5.50;99.90
27164;DHT22;14685;50.618;7.024;2022-12-10T02:23:47;5.60;99.90
27164;DHT22;14685;50.618;7.024;2022-12-10T02:26:42;5.50;99.90
27164;DHT22;14685;50.618;7.024;2022-12-10T02:29:15;5.50;99.90
27164;DHT22;14685;50.618;7.024;2022-12-10T02:31:57;5.50;99.90
27164;DHT22;14685;50.618;7.024;2022-12-10T02:34:29;5.50;99.90
27164;DHT22;14685;50.618;7.024;2022-12-10T02:37:01;5.50;99.90
27164;DHT22;14685;50.618;7.024;2022-12-10T02:39:35;5.50;99.90
27164;DHT22;14685;50.618;7.024;2022-12-10T02:42:05;5.50;99.90
27164;DHT22;14685;50.618;7.024;2022-12-10T02:44:36;5.50;99.90
27164;DHT22;14685;50.618;7.024;2022-12-10T02:47:06;5.50;99.90
27164;DHT22;14685;50.618;7.024;2022-12-10T02:49:35;5.50;99.90
27164;DHT22;14685;50.618;7.024;2022-12-10T02:52:12;5.50;99.90
27164;DHT22;14685;50.618;7.024;2022-12-10T02:54:44;5.50;99.90
27164;DHT22;14685;50.618;7.024;2022-12-10T02:59:51;5.50;99.90
27164;DHT22;14685;50.618;7.024;2022-12-10T03:02:47;5.40;99.90
27164;DHT22;14685;50.618;7.024;2022-12-10T03:05:24;5.50;99.90
27164;DHT22;14685;50.618;7.024;2022-12-10T03:08:31;5.50;99.90
27164;DHT22;14685;50.618;7.024;2022-12-10T03:11:12;5.50;99.90
27164;DHT22;14685;50.618;7.024;2022-12-10T03:14:06;5.50;99.90
27164;DHT22;14685;50.618;7.024;2022-12-10T03:16:41;5.50;99.90
27164;DHT22;14685;50.618;7.024;2022-12-10T03:19:15;5.50;99.90
27164;DHT22;14685;50.618;7.024;2022-12-10T03:21:44;5.50;99.90
27164;DHT22;14685;50.618;7.024;2022-12-10T03:24:13;5.50;99.90
27164;DHT22;14685;50.618;7.024;2022-12-10T03:26:44;5.50;99.90
27164;DHT22;14685;50.618;7.024;2022-12-10T03:29:19;5.40;99.90
27164;DHT22;14685;50.618;7.024;2022-12-10T03:31:47;5.40;99.90
27164;DHT22;14685;50.618;7.024;2022-12-10T03:34:15;5.40;99.90
27164;DHT22;14685;50.618;7.024;2022-12-10T03:36:43;5.40;99.90
27164;DHT22;14685;50.618;7.024;2022-12-10T03:39:11;5.40;99.90
27164;DHT22;14685;50.618;7.024;2022-12-10T03:41:39;5.40;99.90
27164;DHT22;14685;50.618;7.024;2022-12-10T03:44:07;5.40;99.90
27164;DHT22;14685;50.618;7.024;2022-12-10T03:46:34;5.40;99.90
27164;DHT22;14685;50.618;7.024;2022-12-10T03:49:02;5.40;99.90
27164;DHT22;14685;50.618;7.024;2022-12-10T03:51:29;5.40;99.90
27164;DHT22;14685;50.618;7.024;2022-12-10T03:53:57;5.40;99.90
27164;DHT22;14685;50.618;7.024;2022-12-10T03:56:25;5.40;99.90
27164;DHT22;14685;50.618;7.024;2022-12-10T03:58:53;5.40;99.90
27164;DHT22;14685;50.618;7.024;2022-12-10T04:01:20;5.40;99.90
27164;DHT22;14685;50.618;7.024;2022-12-10T04:03:47;5.40;99.90
27164;DHT22;14685;50.618;7.024;2022-12-10T04:06:17;5.40;99.90
27164;DHT22;14685;50.618;7.024;2022-12-10T04:08:44;5.40;99.90
27164;DHT22;14685;50.618;7.024;2022-12-10T04:11:12;5.40;99.90
27164;DHT22;14685;50.618;7.024;2022-12-10T04:13:39;5.40;99.90
27164;DHT22;14685;50.618;7.024;2022-12-10T04:16:34;5.40;99.90
27164;DHT22;14685;50.618;7.024;2022-12-10T04:19:06;5.40;99.90
27164;DHT22;14685;50.618;7.024;2022-12-10T04:21:35;5.30;99.90
27164;DHT22;14685;50.618;7.024;2022-12-10T04:24:23;5.30;99.90
27164;DHT22;14685;50.618;7.024;2022-12-10T04:27:20;5.30;99.90
27164;DHT22;14685;50.618;7.024;2022-12-10T04:29:47;5.30;99.90
27164;DHT22;14685;50.618;7.024;2022-12-10T04:32:14;5.30;99.90
27164;DHT22;14685;50.618;7.024;2022-12-10T04:34:43;5.30;99.90
27164;DHT22;14685;50.618;7.024;2022-12-10T04:37:10;5.30;99.90
27164;DHT22;14685;50.618;7.024;2022-12-10T04:39:39;5.30;99.90
27164;DHT22;14685;50.618;7.024;2022-12-10T04:42:08;5.30;99.90
27164;DHT22;14685;50.618;7.024;2022-12-10T04:44:35;5.30;99.90
27164;DHT22;14685;50.618;7.024;2022-12-10T04:47:06;5.30;99.90
27164;DHT22;14685;50.618;7.024;2022-12-10T04:49:34;5.30;99.90
27164;DHT22;14685;50.618;7.024;2022-12-10T04:52:01;5.30;99.90
27164;DHT22;14685;50.618;7.024;2022-12-10T04:54:29;5.30;99.90
27164;DHT22;14685;50.618;7.024;2022-12-10T04:57:04;5.30;99.90
27164;DHT22;14685;50.618;7.024;2022-12-10T04:59:32;5.30;99.90
27164;DHT22;14685;50.618;7.024;2022-12-10T05:01:59;5.30;99.90
27164;DHT22;14685;50.618;7.024;2022-12-10T05:04:26;5.30;99.90
27164;DHT22;14685;50.618;7.024;2022-12-10T05:06:53;5.30;99.90
27164;DHT22;14685;50.618;7.024;2022-12-10T05:09:20;5.30;99.90
27164;DHT22;14685;50.618;7.024;2022-12-10T05:11:46;5.30;99.90
27164;DHT22;14685;50.618;7.024;2022-12-10T05:14:15;5.30;99.90
27164;DHT22;14685;50.618;7.024;2022-12-10T05:16:42;5.30;99.90
27164;DHT22;14685;50.618;7.024;2022-12-10T05:19:10;5.30;99.90
27164;DHT22;14685;50.618;7.024;2022-12-10T05:21:38;5.30;99.90
27164;DHT22;14685;50.618;7.024;2022-12-10T05:24:23;5.30;99.90
27164;DHT22;14685;50.618;7.024;2022-12-10T05:26:50;5.30;99.90
27164;DHT22;14685;50.618;7.024;2022-12-10T05:29:20;5.30;99.90
27164;DHT22;14685;50.618;7.024;2022-12-10T05:31:47;5.30;99.90
27164;DHT22;14685;50.618;7.024;2022-12-10T05:34:14;5.30;99.90
27164;DHT22;14685;50.618;7.024;2022-12-10T05:36:41;5.30;99.90
27164;DHT22;14685;50.618;7.024;2022-12-10T05:39:10;5.30;99.90
27164;DHT22;14685;50.618;7.024;2022-12-10T05:41:38;5.30;99.90
27164;DHT22;14685;50.618;7.024;2022-12-10T05:44:06;5.30;99.90
27164;DHT22;14685;50.618;7.024;2022-12-10T05:46:34;5.30;99.90
27164;DHT22;14685;50.618;7.024;2022-12-10T05:49:03;5.30;99.90
27164;DHT22;14685;50.618;7.024;2022-12-10T05:51:33;5.30;99.90
27164;DHT22;14685;50.618;7.024;2022-12-10T05:54:01;5.30;99.90
27164;DHT22;14685;50.618;7.024;2022-12-10T05:56:31;5.30;99.90
27164;DHT22;14685;50.618;7.024;2022-12-10T05:59:00;5.20;99.90
27164;DHT22;14685;50.618;7.024;2022-12-10T06:01:30;5.30;99.90
27164;DHT22;14685;50.618;7.024;2022-12-10T06:03:58;5.20;99.90
27164;DHT22;14685;50.618;7.024;2022-12-10T06:06:28;5.20;99.90
27164;DHT22;14685;50.618;7.024;2022-12-10T06:08:57;5.30;99.90
27164;DHT22;14685;50.618;7.024;2022-12-10T06:11:25;5.20;99.90
27164;DHT22;14685;50.618;7.024;2022-12-10T06:13:54;5.20;99.90
27164;DHT22;14685;50.618;7.024;2022-12-10T06:16:25;5.20;99.90
27164;DHT22;14685;50.618;7.024;2022-12-10T06:18:52;5.20;99.90
27164;DHT22;14685;50.618;7.024;2022-12-10T06:21:20;5.20;99.90
27164;DHT22;14685;50.618;7.024;2022-12-10T06:23:47;5.20;99.90
27164;DHT22;14685;50.618;7.024;2022-12-10T06:26:17;5.20;99.90
27164;DHT22;14685;50.618;7.024;2022-12-10T06:28:46;5.20;99.90
27164;DHT22;14685;50.618;7.024;2022-12-10T06:31:14;5.20;99.90
27164;DHT22;14685;50.618;7.024;2022-12-10T06:33:42;5.20;99.90
27164;DHT22;14685;50.618;7.024;2022-12-10T06:36:10;5.20;99.90
27164;DHT22;14685;50.618;7.024;2022-12-10T06:38:37;5.20;99.90
27164;DHT22;14685;50.618;7.024;2022-12-10T06:41:09;5.20;99.90
27164;DHT22;14685;50.618;7.024;2022-12-10T06:43:37;5.20;99.90
27164;DHT22;14685;50.618;7.024;2022-12-10T06:46:06;5.20;99.90
27164;DHT22;14685;50.618;7.024;2022-12-10T06:48:33;5.20;99.90
27164;DHT22;14685;50.618;7.024;2022-12-10T06:51:00;5.20;99.90
27164;DHT22;14685;50.618;7.024;2022-12-10T06:53:28;5.20;99.90
27164;DHT22;14685;50.618;7.024;2022-12-10T06:56:01;5.20;99.90
27164;DHT22;14685;50.618;7.024;2022-12-10T06:58:29;5.20;99.90
27164;DHT22;14685;50.618;7.024;2022-12-10T07:01:08;5.20;99.90
27164;DHT22;14685;50.618;7.024;2022-12-10T07:03:35;5.20;99.90
27164;DHT22;14685;50.618;7.024;2022-12-10T07:06:06;5.20;99.90
27164;DHT22;14685;50.618;7.024;2022-12-10T07:08:35;5.20;99.90
27164;DHT22;14685;50.618;7.024;2022-12-10T07:11:08;5.20;99.90
27164;DHT22;14685;50.618;7.024;2022-12-10T07:13:35;5.20;99.90
27164;DHT22;14685;50.618;7.024;2022-12-10T07:16:03;5.20;99.90
27164;DHT22;14685;50.618;7.024;2022-12-10T07:18:30;5.20;99.90
27164;DHT22;14685;50.618;7.024;2022-12-10T07:20:56;5.20;99.90
27164;DHT22;14685;50.618;7.024;2022-12-10T07:23:23;5.20;99.90
27164;DHT22;14685;50.618;7.024;2022-12-10T07:25:50;5.20;99.90
27164;DHT22;14685;50.618;7.024;2022-12-10T07:28:18;5.20;99.90
27164;DHT22;14685;50.618;7.024;2022-12-10T07:30:44;5.20;99.90
27164;DHT22;14685;50.618;7.024;2022-12-10T07:33:11;5.20;99.90
27164;DHT22;14685;50.618;7.024;2022-12-10T07:35:39;5.20;99.90
27164;DHT22;14685;50.618;7.024;2022-12-10T07:38:14;5.20;99.90
27164;DHT22;14685;50.618;7.024;2022-12-10T07:40:41;5.20;99.90
27164;DHT22;14685;50.618;7.024;2022-12-10T07:43:09;5.20;99.90
27164;DHT22;14685;50.618;7.024;2022-12-10T07:45:37;5.20;99.90
27164;DHT22;14685;50.618;7.024;2022-12-10T07:48:04;5.20;99.90
27164;DHT22;14685;50.618;7.024;2022-12-10T07:50:31;5.10;99.90
27164;DHT22;14685;50.618;7.024;2022-12-10T07:52:59;5.20;99.90
27164;DHT22;14685;50.618;7.024;2022-12-10T07:55:30;5.20;99.90
27164;DHT22;14685;50.618;7.024;2022-12-10T07:57:56;5.20;99.90
27164;DHT22;14685;50.618;7.024;2022-12-10T08:00:23;5.20;99.90
27164;DHT22;14685;50.618;7.024;2022-12-10T08:02:50;5.20;99.90
27164;DHT22;14685;50.618;7.024;2022-12-10T08:05:17;5.20;99.90
27164;DHT22;14685;50.618;7.024;2022-12-10T08:07:46;5.20;99.90
27164;DHT22;14685;50.618;7.024;2022-12-10T08:10:12;5.20;99.90
27164;DHT22;14685;50.618;7.024;2022-12-10T08:12:39;5.20;99.90
27164;DHT22;14685;50.618;7.024;2022-12-10T08:15:07;5.20;99.90
27164;DHT22;14685;50.618;7.024;2022-12-10T08:17:35;5.20;99.90
27164;DHT22;14685;50.618;7.024;2022-12-10T08:20:02;5.20;99.90
27164;DHT22;14685;50.618;7.024;2022-12-10T08:22:29;5.20;99.90
27164;DHT22;14685;50.618;7.024;2022-12-10T08:24:56;5.20;99.90
27164;DHT22;14685;50.618;7.024;2022-12-10T08:27:23;5.20;99.90
27164;DHT22;14685;50.618;7.024;2022-12-10T08:29:50;5.20;99.90
27164;DHT22;14685;50.618;7.024;2022-12-10T08:32:16;5.20;99.90
27164;DHT22;14685;50.618;7.024;2022-12-10T08:34:44;5.20;99.90
27164;DHT22;14685;50.618;7.024;2022-12-10T08:37:11;5.20;99.90
27164;DHT22;14685;50.618;7.024;2022-12-10T08:39:38;5.20;99.90
27164;DHT22;14685;50.618;7.024;2022-12-10T08:42:04;5.20;99.90
27164;DHT22;14685;50.618;7.024;2022-12-10T08:44:33;5.20;99.90
27164;DHT22;14685;50.618;7.024;2022-12-10T08:46:59;5.20;99.90
27164;DHT22;14685;50.618;7.024;2022-12-10T08:49:26;5.20;99.90
27164;DHT22;14685;50.618;7.024;2022-12-10T08:51:54;5.30;99.90
27164;DHT22;14685;50.618;7.024;2022-12-10T08:54:22;5.20;99.90
27164;DHT22;14685;50.618;7.024;2022-12-10T08:56:49;5.30;99.90
27164;DHT22;14685;50.618;7.024;2022-12-10T08:59:17;5.20;99.90
27164;DHT22;14685;50.618;7.024;2022-12-10T09:01:44;5.30;99.90
27164;DHT22;14685;50.618;7.024;2022-12-10T09:04:10;5.30;99.90
27164;DHT22;14685;50.618;7.024;2022-12-10T09:06:42;5.20;99.90
27164;DHT22;14685;50.618;7.024;2022-12-10T09:09:08;5.30;99.90
27164;DHT22;14685;50.618;7.024;2022-12-10T09:11:35;5.30;99.90
27164;DHT22;14685;50.618;7.024;2022-12-10T09:14:02;5.30;99.90
27164;DHT22;14685;50.618;7.024;2022-12-10T09:16:34;5.30;99.90
27164;DHT22;14685;50.618;7.024;2022-12-10T09:19:03;5.30;99.90
27164;DHT22;14685;50.618;7.024;2022-12-10T09:21:38;5.30;99.90
27164;DHT22;14685;50.618;7.024;2022-12-10T09:24:05;5.30;99.90
27164;DHT22;14685;50.618;7.024;2022-12-10T09:26:32;5.30;99.90
27164;DHT22;14685;50.618;7.024;2022-12-10T09:28:59;5.20;99.90
27164;DHT22;14685;50.618;7.024;2022-12-10T09:31:26;5.20;99.90
27164;DHT22;14685;50.618;7.024;2022-12-10T09:33:55;5.20;99.90
27164;DHT22;14685;50.618;7.024;2022-12-10T09:36:22;5.30;99.90
27164;DHT22;14685;50.618;7.024;2022-12-10T09:38:57;5.20;99.90
27164;DHT22;14685;50.618;7.024;2022-12-10T09:46:51;5.30;99.90
27164;DHT22;14685;50.618;7.024;2022-12-10T09:52:00;5.30;99.90
27164;DHT22;14685;50.618;7.024;2022-12-10T09:54:33;5.30;99.90
27164;DHT22;14685;50.618;7.024;2022-12-10T09:57:05;5.30;99.90
27164;DHT22;14685;50.618;7.024;2022-12-10T09:59:44;5.30;99.90
27164;DHT22;14685;50.618;7.024;2022-12-10T10:02:29;5.30;99.90
27164;DHT22;14685;50.618;7.024;2022-12-10T10:07:36;5.40;99.90
27164;DHT22;14685;50.618;7.024;2022-12-10T10:10:07;5.40;99.90
27164;DHT22;14685;50.618;7.024;2022-12-10T10:12:39;5.30;99.90
27164;DHT22;14685;50.618;7.024;2022-12-10T10:15:14;5.40;99.90
27164;DHT22;14685;50.618;7.024;2022-12-10T10:17:41;5.30;99.90
27164;DHT22;14685;50.618;7.024;2022-12-10T10:20:13;5.40;99.90
27164;DHT22;14685;50.618;7.024;2022-12-10T10:22:41;5.40;99.90
27164;DHT22;14685;50.618;7.024;2022-12-10T10:25:18;5.40;99.90
27164;DHT22;14685;50.618;7.024;2022-12-10T10:27:47;5.40;99.90
27164;DHT22;14685;50.618;7.024;2022-12-10T10:30:20;5.40;99.90
27164;DHT22;14685;50.618;7.024;2022-12-10T10:37:50;5.40;99.90
27164;DHT22;14685;50.618;7.024;2022-12-10T10:40:32;5.40;99.90
27164;DHT22;14685;50.618;7.024;2022-12-10T10:43:00;5.40;99.90
27164;DHT22;14685;50.618;7.024;2022-12-10T10:45:41;5.40;99.90
27164;DHT22;14685;50.618;7.024;2022-12-10T10:48:15;5.40;99.90
27164;DHT22;14685;50.618;7.024;2022-12-10T10:50:46;5.40;99.90
27164;DHT22;14685;50.618;7.024;2022-12-10T10:56:12;5.40;99.90
27164;DHT22;14685;50.618;7.024;2022-12-10T10:59:07;5.50;99.90
27164;DHT22;14685;50.618;7.024;2022-12-10T11:02:02;5.50;99.90
27164;DHT22;14685;50.618;7.024;2022-12-10T11:04:53;5.50;99.90
27164;DHT22;14685;50.618;7.024;2022-12-10T11:09:48;5.60;99.90
27164;DHT22;14685;50.618;7.024;2022-12-10T11:12:39;5.50;99.90
27164;DHT22;14685;50.618;7.024;2022-12-10T11:15:29;5.50;99.90
27164;DHT22;14685;50.618;7.024;2022-12-10T11:17:57;5.50;99.90
27164;DHT22;14685;50.618;7.024;2022-12-10T11:23:08;5.50;99.90
27164;DHT22;14685;50.618;7.024;2022-12-10T11:31:16;5.50;99.90
27164;DHT22;14685;50.618;7.024;2022-12-10T11:45:24;5.30;99.90
27164;DHT22;14685;50.618;7.024;2022-12-10T11:48:38;5.40;99.90
27164;DHT22;14685;50.618;7.024;2022-12-10T11:51:30;5.40;99.90
27164;DHT22;14685;50.618;7.024;2022-12-10T11:56:50;5.40;99.90
27164;DHT22;14685;50.618;7.024;2022-12-10T11:59:33;5.50;99.90
27164;DHT22;14685;50.618;7.024;2022-12-10T12:08:40;5.50;99.90
27164;DHT22;14685;50.618;7.024;2022-12-10T12:14:13;5.50;99.90
27164;DHT22;14685;50.618;7.024;2022-12-10T12:16:47;5.50;99.90
27164;DHT22;14685;50.618;7.024;2022-12-10T12:19:32;5.60;99.90
27164;DHT22;14685;50.618;7.024;2022-12-10T12:22:00;5.60;99.90
27164;DHT22;14685;50.618;7.024;2022-12-10T12:24:35;5.70;99.90
27164;DHT22;14685;50.618;7.024;2022-12-10T12:27:21;5.70;99.90
27164;DHT22;14685;50.618;7.024;2022-12-10T12:30:13;5.70;99.90
27164;DHT22;14685;50.618;7.024;2022-12-10T12:33:04;5.70;99.90
27164;DHT22;14685;50.618;7.024;2022-12-10T12:35:41;5.70;99.90
27164;DHT22;14685;50.618;7.024;2022-12-10T12:38:28;5.70;99.90
27164;DHT22;14685;50.618;7.024;2022-12-10T12:41:04;5.70;99.90
27164;DHT22;14685;50.618;7.024;2022-12-10T12:46:05;5.70;99.90
27164;DHT22;14685;50.618;7.024;2022-12-10T12:49:02;5.70;99.90
27164;DHT22;14685;50.618;7.024;2022-12-10T12:51:42;5.60;99.90
27164;DHT22;14685;50.618;7.024;2022-12-10T12:54:11;5.60;99.90
27164;DHT22;14685;50.618;7.024;2022-12-10T12:57:05;5.60;99.90
27164;DHT22;14685;50.618;7.024;2022-12-10T13:10:59;5.60;99.90
27164;DHT22;14685;50.618;7.024;2022-12-10T13:13:33;5.60;99.90
27164;DHT22;14685;50.618;7.024;2022-12-10T13:29:54;5.40;99.90
27164;DHT22;14685;50.618;7.024;2022-12-10T13:40:40;5.50;99.90
27164;DHT22;14685;50.618;7.024;2022-12-10T13:46:31;5.40;99.90
27164;DHT22;14685;50.618;7.024;2022-12-10T13:49:04;5.40;99.90
27164;DHT22;14685;50.618;7.024;2022-12-10T13:51:59;5.40;99.90
27164;DHT22;14685;50.618;7.024;2022-12-10T14:00:18;5.30;99.90
27164;DHT22;14685;50.618;7.024;2022-12-10T14:07:54;5.40;99.90
27164;DHT22;14685;50.618;7.024;2022-12-10T14:10:27;5.40;99.90
27164;DHT22;14685;50.618;7.024;2022-12-10T14:12:56;5.40;99.90
27164;DHT22;14685;50.618;7.024;2022-12-10T14:15:25;5.40;99.90
27164;DHT22;14685;50.618;7.024;2022-12-10T14:18:12;5.40;99.90
27164;DHT22;14685;50.618;7.024;2022-12-10T14:20:45;5.40;99.90
27164;DHT22;14685;50.618;7.024;2022-12-10T14:23:28;5.40;99.90
27164;DHT22;14685;50.618;7.024;2022-12-10T14:28:43;5.40;99.90
27164;DHT22;14685;50.618;7.024;2022-12-10T14:31:34;5.40;99.90
27164;DHT22;14685;50.618;7.024;2022-12-10T14:34:07;5.40;99.90
27164;DHT22;14685;50.618;7.024;2022-12-10T14:36:39;5.40;99.90
27164;DHT22;14685;50.618;7.024;2022-12-10T14:39:19;5.40;99.90
27164;DHT22;14685;50.618;7.024;2022-12-10T14:41:51;5.30;99.90
27164;DHT22;14685;50.618;7.024;2022-12-10T14:44:19;5.30;99.90
27164;DHT22;14685;50.618;7.024;2022-12-10T14:46:49;5.30;99.90
27164;DHT22;14685;50.618;7.024;2022-12-10T14:49:20;5.30;99.90
27164;DHT22;14685;50.618;7.024;2022-12-10T14:51:48;5.30;99.90
27164;DHT22;14685;50.618;7.024;2022-12-10T14:54:33;5.30;99.90
27164;DHT22;14685;50.618;7.024;2022-12-10T14:57:04;5.30;99.90
27164;DHT22;14685;50.618;7.024;2022-12-10T14:59:45;5.30;99.90
27164;DHT22;14685;50.618;7.024;2022-12-10T15:02:22;5.20;99.90
27164;DHT22;14685;50.618;7.024;2022-12-10T15:04:53;5.20;99.90
27164;DHT22;14685;50.618;7.024;2022-12-10T15:07:23;5.20;99.90
27164;DHT22;14685;50.618;7.024;2022-12-10T15:09:53;5.20;99.90
27164;DHT22;14685;50.618;7.024;2022-12-10T15:12:30;5.20;99.90
27164;DHT22;14685;50.618;7.024;2022-12-10T15:15:04;5.20;99.90
27164;DHT22;14685;50.618;7.024;2022-12-10T15:17:33;5.10;99.90
27164;DHT22;14685;50.618;7.024;2022-12-10T15:20:00;5.10;99.90
27164;DHT22;14685;50.618;7.024;2022-12-10T15:22:28;5.10;99.90
27164;DHT22;14685;50.618;7.024;2022-12-10T15:25:27;5.00;99.90
27164;DHT22;14685;50.618;7.024;2022-12-10T15:28:00;5.00;99.90
27164;DHT22;14685;50.618;7.024;2022-12-10T15:30:37;5.00;99.90
27164;DHT22;14685;50.618;7.024;2022-12-10T15:33:22;5.00;99.90
27164;DHT22;14685;50.618;7.024;2022-12-10T15:35:54;5.00;99.90
27164;DHT22;14685;50.618;7.024;2022-12-10T15:38:21;5.00;99.90
27164;DHT22;14685;50.618;7.024;2022-12-10T15:40:48;4.90;99.90
27164;DHT22;14685;50.618;7.024;2022-12-10T15:43:29;4.90;99.90
27164;DHT22;14685;50.618;7.024;2022-12-10T15:45:57;5.00;99.90
27164;DHT22;14685;50.618;7.024;2022-12-10T15:48:26;4.90;99.90
27164;DHT22;14685;50.618;7.024;2022-12-10T15:50:56;5.00;99.90
27164;DHT22;14685;50.618;7.024;2022-12-10T15:53:33;5.00;99.90
27164;DHT22;14685;50.618;7.024;2022-12-10T15:56:02;5.00;99.90
27164;DHT22;14685;50.618;7.024;2022-12-10T15:58:29;5.00;99.90
27164;DHT22;14685;50.618;7.024;2022-12-10T16:00:57;5.00;99.90
27164;DHT22;14685;50.618;7.024;2022-12-10T16:03:27;5.00;99.90
27164;DHT22;14685;50.618;7.024;2022-12-10T16:05:54;4.90;99.90
27164;DHT22;14685;50.618;7.024;2022-12-10T16:08:28;4.90;99.90
27164;DHT22;14685;50.618;7.024;2022-12-10T16:10:59;4.90;99.90
27164;DHT22;14685;50.618;7.024;2022-12-10T16:13:32;4.90;99.90
27164;DHT22;14685;50.618;7.024;2022-12-10T16:16:05;4.90;99.90
27164;DHT22;14685;50.618;7.024;2022-12-10T16:18:32;4.90;99.90
27164;DHT22;14685;50.618;7.024;2022-12-10T16:21:06;4.90;99.90
27164;DHT22;14685;50.618;7.024;2022-12-10T16:23:34;4.90;99.90
27164;DHT22;14685;50.618;7.024;2022-12-10T16:26:02;4.90;99.90
27164;DHT22;14685;50.618;7.024;2022-12-10T16:28:28;4.90;99.90
27164;DHT22;14685;50.618;7.024;2022-12-10T16:30:57;4.90;99.90
27164;DHT22;14685;50.618;7.024;2022-12-10T16:33:27;4.90;99.90
27164;DHT22;14685;50.618;7.024;2022-12-10T16:35:54;4.90;99.90
27164;DHT22;14685;50.618;7.024;2022-12-10T16:38:23;4.90;99.90
27164;DHT22;14685;50.618;7.024;2022-12-10T16:40:52;4.90;99.90
27164;DHT22;14685;50.618;7.024;2022-12-10T16:43:25;4.90;99.90
27164;DHT22;14685;50.618;7.024;2022-12-10T16:45:52;4.90;99.90
27164;DHT22;14685;50.618;7.024;2022-12-10T16:48:19;4.90;99.90
27164;DHT22;14685;50.618;7.024;2022-12-10T16:50:49;4.90;99.90
27164;DHT22;14685;50.618;7.024;2022-12-10T16:53:25;4.90;99.90
27164;DHT22;14685;50.618;7.024;2022-12-10T16:55:54;4.90;99.90
27164;DHT22;14685;50.618;7.024;2022-12-10T16:58:21;4.90;99.90
27164;DHT22;14685;50.618;7.024;2022-12-10T17:00:50;4.90;99.90
27164;DHT22;14685;50.618;7.024;2022-12-10T17:03:20;4.90;99.90
27164;DHT22;14685;50.618;7.024;2022-12-10T17:05:53;4.90;99.90
27164;DHT22;14685;50.618;7.024;2022-12-10T17:08:21;4.90;99.90
27164;DHT22;14685;50.618;7.024;2022-12-10T17:10:49;4.90;99.90
27164;DHT22;14685;50.618;7.024;2022-12-10T17:13:35;4.90;99.90
27164;DHT22;14685;50.618;7.024;2022-12-10T17:16:04;4.80;99.90
27164;DHT22;14685;50.618;7.024;2022-12-10T17:18:33;4.80;99.90
27164;DHT22;14685;50.618;7.024;2022-12-10T17:21:00;4.80;99.90
27164;DHT22;14685;50.618;7.024;2022-12-10T17:23:27;4.80;99.90
27164;DHT22;14685;50.618;7.024;2022-12-10T17:25:54;4.80;99.90
27164;DHT22;14685;50.618;7.024;2022-12-10T17:28:21;4.80;99.90
27164;DHT22;14685;50.618;7.024;2022-12-10T17:30:49;4.80;99.90
27164;DHT22;14685;50.618;7.024;2022-12-10T17:33:18;4.70;99.90
27164;DHT22;14685;50.618;7.024;2022-12-10T17:35:47;4.70;99.90
27164;DHT22;14685;50.618;7.024;2022-12-10T17:38:16;4.70;99.90
27164;DHT22;14685;50.618;7.024;2022-12-10T17:40:43;4.70;99.90
27164;DHT22;14685;50.618;7.024;2022-12-10T17:43:11;4.70;99.90
27164;DHT22;14685;50.618;7.024;2022-12-10T17:45:40;4.70;99.90
27164;DHT22;14685;50.618;7.024;2022-12-10T17:48:13;4.70;99.90
27164;DHT22;14685;50.618;7.024;2022-12-10T17:50:40;4.70;99.90
27164;DHT22;14685;50.618;7.024;2022-12-10T17:53:11;4.80;99.90
27164;DHT22;14685;50.618;7.024;2022-12-10T17:55:42;4.70;99.90
27164;DHT22;14685;50.618;7.024;2022-12-10T17:58:14;4.70;99.90
27164;DHT22;14685;50.618;7.024;2022-12-10T18:00:41;4.70;99.90
27164;DHT22;14685;50.618;7.024;2022-12-10T18:03:10;4.70;99.90
27164;DHT22;14685;50.618;7.024;2022-12-10T18:05:37;4.70;99.90
27164;DHT22;14685;50.618;7.024;2022-12-10T18:08:04;4.70;99.90
27164;DHT22;14685;50.618;7.024;2022-12-10T18:10:32;4.70;99.90